sensor_id;sensor_type;location;lat;lon;timestamp;pressure;altitude;pressure_sealevel;temperature;humidity
65173;BME280;51758;52.218;5.172;2023-02-12T00:00:36;102335.34;;;7.35;100.00
65173;BME280;51758;52.218;5.172;2023-02-12T00:03:05;102336.31;;;7.34;100.00
65173;BME280;51758;52.218;5.172;2023-02-12T00:05:33;102329.69;;;7.41;100.00
65173;BME280;51758;52.218;5.172;2023-02-12T00:08:00;102309.13;;;7.38;100.00
65173;BME280;51758;52.218;5.172;2023-02-12T00:10:28;102302.88;;;7.30;100.00
65173;BME280;51758;52.218;5.172;2023-02-12T00:12:56;102297.34;;;7.34;100.00
65173;BME280;51758;52.218;5.172;2023-02-12T00:15:23;102322.91;;;7.50;100.00
65173;BME280;51758;52.218;5.172;2023-02-12T00:17:51;102303.94;;;7.27;100.00
65173;BME280;51758;52.218;5.172;2023-02-12T00:20:21;102337.00;;;7.36;100.00
65173;BME280;51758;52.218;5.172;2023-02-12T00:22:48;102337.09;;;7.35;100.00
65173;BME280;51758;52.218;5.172;2023-02-12T00:25:16;102326.88;;;7.33;100.00
65173;BME280;51758;52.218;5.172;2023-02-12T00:27:44;102328.88;;;7.30;100.00
65173;BME280;51758;52.218;5.172;2023-02-12T00:30:12;102309.72;;;7.42;100.00
65173;BME280;51758;52.218;5.172;2023-02-12T00:32:40;102335.81;;;7.40;100.00
65173;BME280;51758;52.218;5.172;2023-02-12T00:35:07;102324.72;;;7.38;100.00
65173;BME280;51758;52.218;5.172;2023-02-12T00:37:36;102316.31;;;7.46;100.00
65173;BME280;51758;52.218;5.172;2023-02-12T00:40:05;102331.09;;;7.45;100.00
65173;BME280;51758;52.218;5.172;2023-02-12T00:42:33;102331.22;;;7.44;100.00
65173;BME280;51758;52.218;5.172;2023-02-12T00:45:01;102316.22;;;7.36;100.00
65173;BME280;51758;52.218;5.172;2023-02-12T00:47:29;102326.28;;;7.30;100.00
65173;BME280;51758;52.218;5.172;2023-02-12T00:49:56;102316.59;;;7.21;100.00
65173;BME280;51758;52.218;5.172;2023-02-12T00:52:24;102309.84;;;7.29;100.00
65173;BME280;51758;52.218;5.172;2023-02-12T00:54:53;102309.34;;;7.35;100.00
65173;BME280;51758;52.218;5.172;2023-02-12T00:57:21;102312.34;;;7.31;100.00
65173;BME280;51758;52.218;5.172;2023-02-12T00:59:49;102317.88;;;7.26;100.00
65173;BME280;51758;52.218;5.172;2023-02-12T01:02:17;102322.38;;;7.24;100.00
65173;BME280;51758;52.218;5.172;2023-02-12T01:04:44;102327.81;;;7.21;100.00
65173;BME280;51758;52.218;5.172;2023-02-12T01:07:12;102325.78;;;7.25;100.00
65173;BME280;51758;52.218;5.172;2023-02-12T01:09:40;102289.94;;;7.07;100.00
65173;BME280;51758;52.218;5.172;2023-02-12T01:12:09;102321.31;;;7.27;100.00
65173;BME280;51758;52.218;5.172;2023-02-12T01:14:37;102233.91;;;6.82;100.00
65173;BME280;51758;52.218;5.172;2023-02-12T01:17:06;102324.84;;;7.26;100.00
65173;BME280;51758;52.218;5.172;2023-02-12T01:19:34;102323.19;;;7.25;100.00
65173;BME280;51758;52.218;5.172;2023-02-12T01:22:02;102321.66;;;7.33;100.00
65173;BME280;51758;52.218;5.172;2023-02-12T01:24:30;102322.25;;;7.26;100.00
65173;BME280;51758;52.218;5.172;2023-02-12T01:26:57;102331.38;;;7.20;100.00
65173;BME280;51758;52.218;5.172;2023-02-12T01:29:26;102333.25;;;7.18;100.00
65173;BME280;51758;52.218;5.172;2023-02-12T01:31:54;102329.22;;;7.14;100.00
65173;BME280;51758;52.218;5.172;2023-02-12T01:34:22;102335.47;;;7.11;100.00
65173;BME280;51758;52.218;5.172;2023-02-12T01:36:49;102323.22;;;7.02;100.00
65173;BME280;51758;52.218;5.172;2023-02-12T01:39:17;102336.09;;;7.15;100.00
65173;BME280;51758;52.218;5.172;2023-02-12T01:41:45;102330.44;;;7.21;100.00
65173;BME280;51758;52.218;5.172;2023-02-12T01:44:15;102333.38;;;7.16;100.00
65173;BME280;51758;52.218;5.172;2023-02-12T01:46:46;102333.47;;;7.15;100.00
65173;BME280;51758;52.218;5.172;2023-02-12T01:49:17;102330.06;;;7.14;100.00
65173;BME280;51758;52.218;5.172;2023-02-12T01:51:47;102320.25;;;7.18;100.00
65173;BME280;51758;52.218;5.172;2023-02-12T01:54:19;102327.22;;;7.17;100.00
65173;BME280;51758;52.218;5.172;2023-02-12T01:56:48;102314.84;;;7.21;100.00
65173;BME280;51758;52.218;5.172;2023-02-12T01:59:16;102321.31;;;7.27;100.00
65173;BME280;51758;52.218;5.172;2023-02-12T02:01:46;102322.50;;;7.11;100.00
65173;BME280;51758;52.218;5.172;2023-02-12T02:04:16;102322.38;;;7.24;100.00
65173;BME280;51758;52.218;5.172;2023-02-12T02:06:47;102318.13;;;7.23;100.00
65173;BME280;51758;52.218;5.172;2023-02-12T02:09:18;102324.53;;;7.19;100.00
65173;BME280;51758;52.218;5.172;2023-02-12T02:11:46;102323.44;;;7.10;100.00
65173;BME280;51758;52.218;5.172;2023-02-12T02:14:31;102319.78;;;7.13;100.00
65173;BME280;51758;52.218;5.172;2023-02-12T02:17:08;102310.81;;;7.17;100.00
65173;BME280;51758;52.218;5.172;2023-02-12T02:20:12;102313.06;;;7.10;100.00
65173;BME280;51758;52.218;5.172;2023-02-12T02:22:48;102313.75;;;7.12;100.00
65173;BME280;51758;52.218;5.172;2023-02-12T02:25:41;102311.28;;;7.11;100.00
65173;BME280;51758;52.218;5.172;2023-02-12T02:28:32;102304.81;;;7.05;100.00
65173;BME280;51758;52.218;5.172;2023-02-12T02:31:13;102312.50;;;7.07;100.00
65173;BME280;51758;52.218;5.172;2023-02-12T02:33:50;102301.63;;;7.02;100.00
65173;BME280;51758;52.218;5.172;2023-02-12T02:36:26;102314.25;;;7.06;100.00
65173;BME280;51758;52.218;5.172;2023-02-12T02:39:00;102306.00;;;7.01;100.00
65173;BME280;51758;52.218;5.172;2023-02-12T02:41:34;102301.38;;;7.05;100.00
65173;BME280;51758;52.218;5.172;2023-02-12T02:44:08;102305.16;;;7.01;100.00
65173;BME280;51758;52.218;5.172;2023-02-12T02:46:41;102307.28;;;7.07;100.00
65173;BME280;51758;52.218;5.172;2023-02-12T02:49:16;102298.09;;;7.03;100.00
65173;BME280;51758;52.218;5.172;2023-02-12T02:51:46;102300.56;;;6.93;100.00
65173;BME280;51758;52.218;5.172;2023-02-12T02:54:17;102274.25;;;6.87;100.00
65173;BME280;51758;52.218;5.172;2023-02-12T02:56:47;102249.97;;;6.54;100.00
65173;BME280;51758;52.218;5.172;2023-02-12T02:59:22;102299.75;;;6.93;100.00
65173;BME280;51758;52.218;5.172;2023-02-12T03:01:57;102291.22;;;7.02;100.00
65173;BME280;51758;52.218;5.172;2023-02-12T03:04:31;102289.97;;;6.96;100.00
65173;BME280;51758;52.218;5.172;2023-02-12T03:07:05;102293.13;;;7.00;100.00
65173;BME280;51758;52.218;5.172;2023-02-12T03:09:37;102270.69;;;6.99;100.00
65173;BME280;51758;52.218;5.172;2023-02-12T03:12:10;102275.78;;;7.00;100.00
65173;BME280;51758;52.218;5.172;2023-02-12T03:14:45;102284.97;;;7.04;100.00
65173;BME280;51758;52.218;5.172;2023-02-12T03:17:19;102279.16;;;7.12;100.00
65173;BME280;51758;52.218;5.172;2023-02-12T03:19:51;102280.59;;;7.16;100.00
65173;BME280;51758;52.218;5.172;2023-02-12T03:22:24;102281.06;;;7.10;100.00
65173;BME280;51758;52.218;5.172;2023-02-12T03:24:57;102285.31;;;7.11;100.00
65173;BME280;51758;52.218;5.172;2023-02-12T03:27:31;102282.84;;;7.09;100.00
65173;BME280;51758;52.218;5.172;2023-02-12T03:30:00;102246.50;;;6.87;100.00
65173;BME280;51758;52.218;5.172;2023-02-12T03:32:36;102290.19;;;6.93;100.00
65173;BME280;51758;52.218;5.172;2023-02-12T03:35:13;102283.69;;;6.99;100.00
65173;BME280;51758;52.218;5.172;2023-02-12T03:37:49;102287.47;;;7.06;100.00
65173;BME280;51758;52.218;5.172;2023-02-12T03:40:27;102283.22;;;7.05;100.00
65173;BME280;51758;52.218;5.172;2023-02-12T03:43:01;102291.34;;;7.11;100.00
65173;BME280;51758;52.218;5.172;2023-02-12T03:45:39;102295.28;;;6.83;100.00
65173;BME280;51758;52.218;5.172;2023-02-12T03:48:12;102283.09;;;6.84;100.00
65173;BME280;51758;52.218;5.172;2023-02-12T03:50:49;102297.63;;;7.09;100.00
65173;BME280;51758;52.218;5.172;2023-02-12T03:53:18;102293.34;;;7.19;100.00
65173;BME280;51758;52.218;5.172;2023-02-12T03:55:48;102295.22;;;7.17;100.00
65173;BME280;51758;52.218;5.172;2023-02-12T03:58:20;102301.50;;;7.14;100.00
65173;BME280;51758;52.218;5.172;2023-02-12T04:00:50;102282.59;;;7.12;100.00
65173;BME280;51758;52.218;5.172;2023-02-12T04:03:20;102299.84;;;7.13;100.00
65173;BME280;51758;52.218;5.172;2023-02-12T04:05:48;102306.91;;;7.11;100.00
65173;BME280;51758;52.218;5.172;2023-02-12T04:08:16;102308.94;;;7.19;100.00
65173;BME280;51758;52.218;5.172;2023-02-12T04:10:53;102280.50;;;7.06;100.00
65173;BME280;51758;52.218;5.172;2023-02-12T04:13:26;102292.75;;;7.15;100.00
65173;BME280;51758;52.218;5.172;2023-02-12T04:16:09;102313.53;;;7.15;100.00
65173;BME280;51758;52.218;5.172;2023-02-12T04:18:44;102312.47;;;7.18;100.00
65173;BME280;51758;52.218;5.172;2023-02-12T04:21:20;102323.56;;;7.20;100.00
65173;BME280;51758;52.218;5.172;2023-02-12T04:23:57;102327.47;;;7.14;100.00
65173;BME280;51758;52.218;5.172;2023-02-12T04:26:35;102338.22;;;7.21;100.00
65173;BME280;51758;52.218;5.172;2023-02-12T04:29:17;102338.66;;;7.26;100.00
65173;BME280;51758;52.218;5.172;2023-02-12T04:31:49;102328.75;;;7.31;100.00
65173;BME280;51758;52.218;5.172;2023-02-12T04:34:26;102336.31;;;7.34;100.00
65173;BME280;51758;52.218;5.172;2023-02-12T04:36:59;102338.09;;;7.34;100.00
65173;BME280;51758;52.218;5.172;2023-02-12T04:39:33;102348.72;;;7.31;100.00
65173;BME280;51758;52.218;5.172;2023-02-12T04:42:03;102351.22;;;7.21;100.00
65173;BME280;51758;52.218;5.172;2023-02-12T04:44:33;102351.31;;;7.31;100.00
65173;BME280;51758;52.218;5.172;2023-02-12T04:47:01;102341.25;;;7.26;100.00
65173;BME280;51758;52.218;5.172;2023-02-12T04:49:30;102356.94;;;7.36;100.00
65173;BME280;51758;52.218;5.172;2023-02-12T04:51:58;102355.22;;;7.14;100.00
65173;BME280;51758;52.218;5.172;2023-02-12T04:54:26;102368.69;;;7.19;100.00
65173;BME280;51758;52.218;5.172;2023-02-12T04:56:53;102374.91;;;7.28;100.00
65173;BME280;51758;52.218;5.172;2023-02-12T04:59:21;102328.53;;;7.01;100.00
65173;BME280;51758;52.218;5.172;2023-02-12T05:01:49;102375.25;;;7.23;100.00
65173;BME280;51758;52.218;5.172;2023-02-12T05:04:17;102363.59;;;7.17;100.00
65173;BME280;51758;52.218;5.172;2023-02-12T05:06:46;102371.25;;;7.30;100.00
65173;BME280;51758;52.218;5.172;2023-02-12T05:09:15;102375.41;;;7.22;100.00
65173;BME280;51758;52.218;5.172;2023-02-12T05:11:43;102333.28;;;6.96;100.00
65173;BME280;51758;52.218;5.172;2023-02-12T05:14:11;102363.59;;;7.17;100.00
65173;BME280;51758;52.218;5.172;2023-02-12T05:16:39;102324.16;;;6.90;100.00
65173;BME280;51758;52.218;5.172;2023-02-12T05:19:07;102360.63;;;7.00;100.00
65173;BME280;51758;52.218;5.172;2023-02-12T05:21:35;102379.75;;;7.10;100.00
65173;BME280;51758;52.218;5.172;2023-02-12T05:24:05;102373.50;;;7.01;100.00
65173;BME280;51758;52.218;5.172;2023-02-12T05:26:33;102236.16;;;6.42;100.00
65173;BME280;51758;52.218;5.172;2023-02-12T05:29:01;102364.75;;;7.13;100.00
65173;BME280;51758;52.218;5.172;2023-02-12T05:31:29;102369.94;;;7.25;100.00
65173;BME280;51758;52.218;5.172;2023-02-12T05:33:57;102372.66;;;7.23;100.00
65173;BME280;51758;52.218;5.172;2023-02-12T05:36:25;102373.50;;;7.24;100.00
65173;BME280;51758;52.218;5.172;2023-02-12T05:38:56;102379.75;;;7.10;100.00
65173;BME280;51758;52.218;5.172;2023-02-12T05:41:26;102366.66;;;7.23;100.00
65173;BME280;51758;52.218;5.172;2023-02-12T05:43:54;102365.34;;;7.28;100.00
65173;BME280;51758;52.218;5.172;2023-02-12T05:46:21;102371.16;;;7.32;100.00
65173;BME280;51758;52.218;5.172;2023-02-12T05:48:49;102376.81;;;7.26;100.00
65173;BME280;51758;52.218;5.172;2023-02-12T05:51:19;102385.91;;;7.09;100.00
65173;BME280;51758;52.218;5.172;2023-02-12T05:53:49;102385.91;;;7.09;100.00
65173;BME280;51758;52.218;5.172;2023-02-12T05:56:19;102395.22;;;6.89;100.00
65173;BME280;51758;52.218;5.172;2023-02-12T05:58:51;102376.94;;;7.02;100.00
65173;BME280;51758;52.218;5.172;2023-02-12T06:01:21;102362.66;;;7.07;100.00
65173;BME280;51758;52.218;5.172;2023-02-12T06:03:49;102379.78;;;7.21;100.00
65173;BME280;51758;52.218;5.172;2023-02-12T06:06:17;102381.91;;;7.05;100.00
65173;BME280;51758;52.218;5.172;2023-02-12T06:08:47;102391.22;;;7.18;100.00
65173;BME280;51758;52.218;5.172;2023-02-12T06:11:16;102388.38;;;7.10;100.00
65173;BME280;51758;52.218;5.172;2023-02-12T06:13:45;102397.13;;;7.21;100.00
65173;BME280;51758;52.218;5.172;2023-02-12T06:16:19;102385.91;;;7.09;100.00
65173;BME280;51758;52.218;5.172;2023-02-12T06:18:47;102381.63;;;6.86;100.00
65173;BME280;51758;52.218;5.172;2023-02-12T06:21:16;102383.28;;;6.98;100.00
65173;BME280;51758;52.218;5.172;2023-02-12T06:23:45;102396.66;;;7.15;100.00
65173;BME280;51758;52.218;5.172;2023-02-12T06:26:14;102398.53;;;7.13;100.00
65173;BME280;51758;52.218;5.172;2023-02-12T06:28:41;102402.91;;;7.13;100.00
65173;BME280;51758;52.218;5.172;2023-02-12T06:31:18;102410.34;;;7.06;100.00
65173;BME280;51758;52.218;5.172;2023-02-12T06:33:46;102395.81;;;7.15;100.00
65173;BME280;51758;52.218;5.172;2023-02-12T06:36:14;102405.38;;;7.26;100.00
65173;BME280;51758;52.218;5.172;2023-02-12T06:38:42;102411.28;;;7.28;100.00
65173;BME280;51758;52.218;5.172;2023-02-12T06:41:10;102406.81;;;7.18;100.00
65173;BME280;51758;52.218;5.172;2023-02-12T06:43:38;102418.97;;;7.29;100.00
65173;BME280;51758;52.218;5.172;2023-02-12T06:46:06;102416.97;;;7.33;100.00
65173;BME280;51758;52.218;5.172;2023-02-12T06:48:35;102427.94;;;7.36;100.00
65173;BME280;51758;52.218;5.172;2023-02-12T06:51:05;102315.31;;;6.70;100.00
65173;BME280;51758;52.218;5.172;2023-02-12T06:53:33;102300.09;;;6.55;100.00
65173;BME280;51758;52.218;5.172;2023-02-12T06:56:02;102438.59;;;7.33;100.00
65173;BME280;51758;52.218;5.172;2023-02-12T06:58:30;102448.00;;;7.23;100.00
65173;BME280;51758;52.218;5.172;2023-02-12T07:01:07;102441.41;;;7.30;100.00
65173;BME280;51758;52.218;5.172;2023-02-12T07:03:37;102451.31;;;7.25;100.00
65173;BME280;51758;52.218;5.172;2023-02-12T07:06:06;102464.28;;;7.14;100.00
65173;BME280;51758;52.218;5.172;2023-02-12T07:08:33;102330.25;;;6.44;100.00
65173;BME280;51758;52.218;5.172;2023-02-12T07:11:01;102457.72;;;7.32;100.00
65173;BME280;51758;52.218;5.172;2023-02-12T07:13:29;102455.34;;;7.29;100.00
65173;BME280;51758;52.218;5.172;2023-02-12T07:15:57;102471.75;;;7.07;100.00
65173;BME280;51758;52.218;5.172;2023-02-12T07:18:25;102462.84;;;6.99;100.00
65173;BME280;51758;52.218;5.172;2023-02-12T07:20:56;102470.16;;;6.94;100.00
65173;BME280;51758;52.218;5.172;2023-02-12T07:23:23;102476.56;;;7.12;100.00
65173;BME280;51758;52.218;5.172;2023-02-12T07:25:54;102478.09;;;7.14;100.00
65173;BME280;51758;52.218;5.172;2023-02-12T07:28:24;102475.63;;;7.13;100.00
65173;BME280;51758;52.218;5.172;2023-02-12T07:30:53;102462.84;;;6.99;100.00
65173;BME280;51758;52.218;5.172;2023-02-12T07:33:20;102486.00;;;7.13;100.00
65173;BME280;51758;52.218;5.172;2023-02-12T07:35:48;102482.59;;;7.24;100.00
65173;BME280;51758;52.218;5.172;2023-02-12T07:38:17;102483.59;;;7.34;100.00
65173;BME280;51758;52.218;5.172;2023-02-12T07:40:45;102477.66;;;7.32;100.00
65173;BME280;51758;52.218;5.172;2023-02-12T07:43:13;102500.94;;;7.33;100.00
65173;BME280;51758;52.218;5.172;2023-02-12T07:45:40;102494.41;;;7.28;100.00
65173;BME280;51758;52.218;5.172;2023-02-12T07:48:08;102517.91;;;7.26;100.00
65173;BME280;51758;52.218;5.172;2023-02-12T07:50:36;102523.09;;;7.15;100.00
65173;BME280;51758;52.218;5.172;2023-02-12T07:53:03;102525.94;;;7.23;100.00
65173;BME280;51758;52.218;5.172;2023-02-12T07:55:32;102522.06;;;7.29;100.00
65173;BME280;51758;52.218;5.172;2023-02-12T07:58:00;102535.16;;;7.27;100.00
65173;BME280;51758;52.218;5.172;2023-02-12T08:00:28;102531.41;;;7.42;100.00
65173;BME280;51758;52.218;5.172;2023-02-12T08:02:55;102543.69;;;7.40;100.00
65173;BME280;51758;52.218;5.172;2023-02-12T08:05:23;102547.25;;;7.50;100.00
65173;BME280;51758;52.218;5.172;2023-02-12T08:07:51;102552.09;;;7.55;100.00
65173;BME280;51758;52.218;5.172;2023-02-12T08:10:18;102554.81;;;7.65;100.00
65173;BME280;51758;52.218;5.172;2023-02-12T08:12:49;102563.34;;;7.67;100.00
65173;BME280;51758;52.218;5.172;2023-02-12T08:15:16;102410.16;;;6.74;100.00
65173;BME280;51758;52.218;5.172;2023-02-12T08:17:44;102569.72;;;7.74;100.00
65173;BME280;51758;52.218;5.172;2023-02-12T08:20:12;102589.94;;;7.81;100.00
65173;BME280;51758;52.218;5.172;2023-02-12T08:22:40;102599.03;;;7.76;100.00
65173;BME280;51758;52.218;5.172;2023-02-12T08:25:07;102574.69;;;7.66;100.00
65173;BME280;51758;52.218;5.172;2023-02-12T08:27:35;102603.06;;;7.80;100.00
65173;BME280;51758;52.218;5.172;2023-02-12T08:30:05;102621.13;;;7.59;100.00
65173;BME280;51758;52.218;5.172;2023-02-12T08:32:33;102587.81;;;7.18;100.00
65173;BME280;51758;52.218;5.172;2023-02-12T08:35:00;102487.56;;;6.69;100.00
65173;BME280;51758;52.218;5.172;2023-02-12T08:37:28;102630.91;;;7.67;100.00
65173;BME280;51758;52.218;5.172;2023-02-12T08:39:56;102645.09;;;7.74;100.00
65173;BME280;51758;52.218;5.172;2023-02-12T08:42:24;102646.66;;;7.76;100.00
65173;BME280;51758;52.218;5.172;2023-02-12T08:44:53;102661.03;;;7.58;100.00
65173;BME280;51758;52.218;5.172;2023-02-12T08:47:22;102658.78;;;7.18;100.00
65173;BME280;51758;52.218;5.172;2023-02-12T08:49:49;102663.41;;;7.26;100.00
65173;BME280;51758;52.218;5.172;2023-02-12T08:52:17;102639.06;;;7.27;100.00
65173;BME280;51758;52.218;5.172;2023-02-12T08:54:45;102659.44;;;7.33;100.00
65173;BME280;51758;52.218;5.172;2023-02-12T08:57:13;102665.47;;;7.34;100.00
65173;BME280;51758;52.218;5.172;2023-02-12T08:59:40;102650.00;;;7.43;100.00
65173;BME280;51758;52.218;5.172;2023-02-12T09:02:08;102643.16;;;7.42;100.00
65173;BME280;51758;52.218;5.172;2023-02-12T09:04:37;102656.91;;;7.55;100.00
65173;BME280;51758;52.218;5.172;2023-02-12T09:07:06;102654.34;;;7.78;100.00
65173;BME280;51758;52.218;5.172;2023-02-12T09:09:36;102656.34;;;7.85;100.00
65173;BME280;51758;52.218;5.172;2023-02-12T09:12:04;102655.91;;;7.91;100.00
65173;BME280;51758;52.218;5.172;2023-02-12T09:14:32;102655.19;;;7.89;100.00
65173;BME280;51758;52.218;5.172;2023-02-12T09:16:59;102679.06;;;7.83;100.00
65173;BME280;51758;52.218;5.172;2023-02-12T09:19:27;102692.41;;;7.79;100.00
65173;BME280;51758;52.218;5.172;2023-02-12T09:21:57;102681.97;;;7.68;100.00
65173;BME280;51758;52.218;5.172;2023-02-12T09:24:25;102675.53;;;7.96;100.00
65173;BME280;51758;52.218;5.172;2023-02-12T09:26:54;102694.00;;;8.15;100.00
65173;BME280;51758;52.218;5.172;2023-02-12T09:29:21;102707.78;;;7.82;100.00
65173;BME280;51758;52.218;5.172;2023-02-12T09:31:49;102707.75;;;7.71;100.00
65173;BME280;51758;52.218;5.172;2023-02-12T09:34:17;102696.31;;;7.84;100.00
65173;BME280;51758;52.218;5.172;2023-02-12T09:36:45;102699.28;;;8.02;100.00
65173;BME280;51758;52.218;5.172;2023-02-12T09:39:14;102703.94;;;7.64;100.00
65173;BME280;51758;52.218;5.172;2023-02-12T09:41:54;102703.72;;;7.67;100.00
65173;BME280;51758;52.218;5.172;2023-02-12T09:44:32;102656.19;;;7.65;100.00
65173;BME280;51758;52.218;5.172;2023-02-12T09:47:08;102690.88;;;7.87;100.00
65173;BME280;51758;52.218;5.172;2023-02-12T09:49:51;102688.44;;;8.08;100.00
65173;BME280;51758;52.218;5.172;2023-02-12T09:52:25;102689.22;;;7.86;100.00
65173;BME280;51758;52.218;5.172;2023-02-12T09:54:55;102696.59;;;8.04;100.00
65173;BME280;51758;52.218;5.172;2023-02-12T09:57:26;102680.63;;;7.97;100.00
65173;BME280;51758;52.218;5.172;2023-02-12T09:59:58;102700.91;;;7.81;100.00
65173;BME280;51758;52.218;5.172;2023-02-12T10:02:28;102698.56;;;7.89;100.00
65173;BME280;51758;52.218;5.172;2023-02-12T10:04:58;102664.97;;;7.75;100.00
65173;BME280;51758;52.218;5.172;2023-02-12T10:07:38;102706.59;;;7.86;100.00
65173;BME280;51758;52.218;5.172;2023-02-12T10:10:22;102699.50;;;7.88;100.00
65173;BME280;51758;52.218;5.172;2023-02-12T10:12:58;102678.59;;;7.89;100.00
65173;BME280;51758;52.218;5.172;2023-02-12T10:15:36;102693.72;;;7.84;100.00
65173;BME280;51758;52.218;5.172;2023-02-12T10:18:25;102694.88;;;7.80;100.00
65173;BME280;51758;52.218;5.172;2023-02-12T10:21:05;102678.59;;;7.89;100.00
65173;BME280;51758;52.218;5.172;2023-02-12T10:23:45;102705.31;;;8.03;100.00
65173;BME280;51758;52.218;5.172;2023-02-12T10:26:21;102698.38;;;8.14;100.00
65173;BME280;51758;52.218;5.172;2023-02-12T10:28:51;102700.97;;;8.25;100.00
65173;BME280;51758;52.218;5.172;2023-02-12T10:31:23;102703.22;;;8.30;100.00
65173;BME280;51758;52.218;5.172;2023-02-12T10:33:55;102709.00;;;8.11;100.00
65173;BME280;51758;52.218;5.172;2023-02-12T10:36:36;102714.47;;;8.31;100.00
65173;BME280;51758;52.218;5.172;2023-02-12T10:39:12;102720.72;;;8.17;100.00
65173;BME280;51758;52.218;5.172;2023-02-12T10:41:46;102737.06;;;8.30;100.00
65173;BME280;51758;52.218;5.172;2023-02-12T10:44:16;102744.03;;;8.18;100.00
65173;BME280;51758;52.218;5.172;2023-02-12T10:46:44;102727.31;;;7.99;100.00
65173;BME280;51758;52.218;5.172;2023-02-12T10:49:14;102744.84;;;8.19;100.00
65173;BME280;51758;52.218;5.172;2023-02-12T10:51:59;102751.16;;;8.39;100.00
65173;BME280;51758;52.218;5.172;2023-02-12T10:54:40;102749.41;;;8.39;100.00
65173;BME280;51758;52.218;5.172;2023-02-12T10:57:17;102751.31;;;8.48;100.00
65173;BME280;51758;52.218;5.172;2023-02-12T10:59:48;102748.34;;;8.64;100.00
65173;BME280;51758;52.218;5.172;2023-02-12T11:02:21;102755.19;;;8.76;100.00
65173;BME280;51758;52.218;5.172;2023-02-12T11:04:50;102639.13;;;7.96;100.00
65173;BME280;51758;52.218;5.172;2023-02-12T11:07:20;102779.56;;;8.42;100.00
65173;BME280;51758;52.218;5.172;2023-02-12T11:09:49;102774.72;;;8.37;100.00
65173;BME280;51758;52.218;5.172;2023-02-12T11:12:29;102720.00;;;8.15;100.00
65173;BME280;51758;52.218;5.172;2023-02-12T11:14:59;102773.66;;;8.51;100.00
65173;BME280;51758;52.218;5.172;2023-02-12T11:17:32;102784.69;;;8.54;100.00
65173;BME280;51758;52.218;5.172;2023-02-12T11:20:06;102687.63;;;8.08;100.00
65173;BME280;51758;52.218;5.172;2023-02-12T11:22:35;102787.16;;;8.78;100.00
65173;BME280;51758;52.218;5.172;2023-02-12T11:25:13;102795.56;;;8.71;100.00
65173;BME280;51758;52.218;5.172;2023-02-12T11:27:43;102801.63;;;8.71;100.00
65173;BME280;51758;52.218;5.172;2023-02-12T11:30:15;102798.63;;;8.65;100.00
65173;BME280;51758;52.218;5.172;2023-02-12T11:32:44;102797.25;;;8.72;100.00
65173;BME280;51758;52.218;5.172;2023-02-12T11:35:17;102806.44;;;8.65;100.00
65173;BME280;51758;52.218;5.172;2023-02-12T11:37:52;102803.00;;;8.42;100.00
65173;BME280;51758;52.218;5.172;2023-02-12T11:40:23;102804.44;;;8.46;100.00
65173;BME280;51758;52.218;5.172;2023-02-12T11:42:56;102771.53;;;8.45;100.00
65173;BME280;51758;52.218;5.172;2023-02-12T11:45:29;102791.09;;;8.84;100.00
65173;BME280;51758;52.218;5.172;2023-02-12T11:47:59;102751.31;;;8.71;100.00
65173;BME280;51758;52.218;5.172;2023-02-12T11:50:28;102802.44;;;8.94;100.00
65173;BME280;51758;52.218;5.172;2023-02-12T11:52:58;102818.63;;;8.75;100.00
65173;BME280;51758;52.218;5.172;2023-02-12T11:55:28;102808.47;;;8.61;100.00
65173;BME280;51758;52.218;5.172;2023-02-12T11:58:03;102814.03;;;8.45;100.00
65173;BME280;51758;52.218;5.172;2023-02-12T12:00:35;102796.75;;;8.67;100.00
65173;BME280;51758;52.218;5.172;2023-02-12T12:03:11;102801.00;;;8.45;100.00
65173;BME280;51758;52.218;5.172;2023-02-12T12:05:43;102724.28;;;8.27;100.00
65173;BME280;51758;52.218;5.172;2023-02-12T12:08:19;102784.22;;;8.60;100.00
65173;BME280;51758;52.218;5.172;2023-02-12T12:10:55;102799.00;;;8.71;100.00
65173;BME280;51758;52.218;5.172;2023-02-12T12:13:32;102806.94;;;8.81;100.00
65173;BME280;51758;52.218;5.172;2023-02-12T12:16:08;102804.34;;;8.81;100.00
65173;BME280;51758;52.218;5.172;2023-02-12T12:18:58;102816.88;;;8.76;100.00
65173;BME280;51758;52.218;5.172;2023-02-12T12:21:53;102810.00;;;8.63;100.00
65173;BME280;51758;52.218;5.172;2023-02-12T12:24:27;102816.53;;;8.58;100.00
65173;BME280;51758;52.218;5.172;2023-02-12T12:27:00;102792.97;;;8.59;100.00
65173;BME280;51758;52.218;5.172;2023-02-12T12:29:50;102808.72;;;8.80;100.00
65173;BME280;51758;52.218;5.172;2023-02-12T12:32:20;102789.66;;;8.69;100.00
65173;BME280;51758;52.218;5.172;2023-02-12T12:34:49;102808.25;;;8.86;100.00
65173;BME280;51758;52.218;5.172;2023-02-12T12:37:28;102813.09;;;8.91;100.00
65173;BME280;51758;52.218;5.172;2023-02-12T12:40:12;102661.31;;;7.88;100.00
65173;BME280;51758;52.218;5.172;2023-02-12T12:43:03;102813.09;;;8.91;100.00
65173;BME280;51758;52.218;5.172;2023-02-12T12:48:54;102810.47;;;9.02;100.00
65173;BME280;51758;52.218;5.172;2023-02-12T12:51:35;102817.59;;;8.89;100.00
65173;BME280;51758;52.218;5.172;2023-02-12T12:54:17;102812.03;;;8.82;100.00
65173;BME280;51758;52.218;5.172;2023-02-12T12:56:57;102809.31;;;8.73;100.00
65173;BME280;51758;52.218;5.172;2023-02-12T13:02:54;102670.22;;;7.97;100.00
65173;BME280;51758;52.218;5.172;2023-02-12T13:05:50;102789.06;;;8.76;100.00
65173;BME280;51758;52.218;5.172;2023-02-12T13:08:32;102799.94;;;8.59;100.00
65173;BME280;51758;52.218;5.172;2023-02-12T13:11:09;102788.72;;;8.81;100.00
65173;BME280;51758;52.218;5.172;2023-02-12T13:13:44;102793.09;;;8.80;100.00
65173;BME280;51758;52.218;5.172;2023-02-12T13:16:16;102658.72;;;8.00;100.00
65173;BME280;51758;52.218;5.172;2023-02-12T13:18:54;102776.28;;;8.84;100.00